Overview Statistics Trail Chart Weather Telemetry Raw packets
 

This is the latest recevied weather packets stored in our database for station/object K5BOU. If no packets are shown the sender has not sent any weather packets the latest 10 day(s).

<< 3 4 5 6 7 8 9 >>
Time Temp. Humidity Pressure Rain* Wind** Luminosity Snow
1788638780 30.56° C 77% 1010.4 hPa 0 mm - 120 W/m² -
1788638475 32.22° C 78% 1010.4 hPa 0 mm - 115 W/m² -
1788638174 32.78° C 71% 1010.5 hPa 0 mm - 762 W/m² -
1788637869 32.78° C 72% 1010.4 hPa 0 mm - 305 W/m² -
1788637569 32.22° C 75% 1010.5 hPa 0 mm - 765 W/m² -
1788637268 32.22° C 76% 1010.4 hPa 0 mm - 213 W/m² -
1788636987 32.22° C 75% 1010.5 hPa 0 mm - 237 W/m² -
1788636658 33.89° C 69% 1010.7 hPa 0 mm - 236 W/m² -
1788636354 35° C 60% 1010.5 hPa 0 mm - 192 W/m² -
1788636050 35° C 63% 1010.7 hPa 0 mm - 170 W/m² -
1788635748 36.11° C 57% 1010.4 hPa 0 mm - 200 W/m² -
1788635448 36.11° C 57% 1010.4 hPa 0 mm - 766 W/m² -
1788635146 36.67° C 59% 1010.5 hPa 0 mm - 782 W/m² -
1788634840 36.11° C 57% 1010.6 hPa 0 mm - 799 W/m² -
1788634539 35° C 59% 1010.9 hPa 0 mm - 769 W/m² -
1788634238 35.56° C 59% 1011 hPa 0 mm - 810 W/m² -
1788633933 35° C 64% 1010.9 hPa 0 mm - 808 W/m² -
1788633632 33.89° C 65% 1011 hPa 0 mm - 738 W/m² -
1788633331 33.33° C 65% 1011 hPa 0 mm - 295 W/m² -
1788633021 33.33° C 65% 1010.8 hPa 0 mm - 165 W/m² -
1788632721 35° C 65% 1011.3 hPa 0 mm - 172 W/m² -
1788632415 33.89° C 65% 1011.2 hPa 0 mm - 823 W/m² -
1788632110 34.44° C 63% 1011.5 hPa 0 mm - 799 W/m² -
1788631809 35° C 63% 1011.4 hPa 0 mm - 585 W/m² -
1788631504 35° C 67% 1011.5 hPa 0 mm - 747 W/m² -

* Rain latest hour (hover to see other rain measurements)
** Current wind speed in m/s (hover to see current wind gust speed)